Flag for France

Past Weather in 49°28'49.6"N, 0°06'23.1"E, France — Yesterday and Last 2 Weeks

Currently: 37 °F. Clear. (Weather station: La Heve, France). See more current weather

Past Weather in 49°28'49.6"N, 0°06'23.1"E — Graph

°F

49°28'49.6"N, 0°06'23.1"E Temperature Yesterday

Maximum temperature yesterday: 48 °F (at 12:30 pm)
Minimum temperature yesterday: 32 °F (at 7:00 am)
Average temperature yesterday: 41 °F

High & Low Weather Summary for the Past Weeks

 TemperatureHumidityPressure
High75 °F (Mar 30, 4:30 pm)100% (Apr 5, 5:30 am)30.54 "Hg (Apr 5, 5:30 am)
Low32 °F (Apr 6, 2:00 am)27% (Mar 30, 2:30 pm)29.80 "Hg (Apr 10, 12:30 pm)
Average46 °F71%30.20 "Hg
* Reported Mar 30 3:00 am — Apr 14 3:30 am, 49°28'49.6"N, 0°06'23.1"E. Weather by CustomWeather, © 2021

Note: Actual official high and low records may vary slightly from our data, if they occured in-between our weather recording intervals... More about our weather records

49°28'49.6"N, 0°06'23.1"E Weather History for the Previous 24 Hours

Scroll right to see more
 ConditionsComfort  
Time TempWeatherWind HumidityBarometerVisibility
3:30 am
Wed, Apr 14
37 °FClear.5 mph70%30.45 "Hg10 mi
3:00 am37 °FClear.5 mph75%30.45 "Hg10 mi
2:30 am37 °FClear.6 mph75%30.48 "Hg10 mi
2:00 am39 °FClear.5 mph70%30.48 "Hg10 mi
1:30 am39 °FClear.5 mph70%30.48 "Hg10 mi
1:00 am37 °FClear.6 mph70%30.48 "Hg10 mi
12:30 am37 °FClear.6 mph70%30.48 "Hg10 mi
12:00 am37 °FClear.6 mph70%30.48 "Hg10 mi
11:30 pm
Tue, Apr 13
37 °FClear.5 mph70%30.48 "Hg10 mi
11:00 pm39 °FClear.6 mph65%30.48 "Hg10 mi
10:30 pm39 °FClear.7 mph65%30.48 "Hg10 mi
10:00 pm39 °FClear.7 mph65%30.48 "Hg10 mi
9:30 pm37 °FClear.7 mph70%30.48 "Hg10 mi
9:00 pm39 °FClear.8 mph70%30.48 "Hg10 mi
8:30 pm43 °FSunny.9 mph61%30.48 "Hg10 mi
8:00 pm45 °FSunny.10 mph57%30.48 "Hg10 mi
7:30 pm46 °FSunny.12 mph53%30.48 "Hg10 mi
7:00 pm46 °FSunny.10 mph57%30.45 "Hg10 mi
6:30 pm48 °FPassing clouds.12 mph50%30.48 "HgN/A
6:00 pm48 °FSunny.13 mph43%30.48 "Hg10 mi
5:30 pm46 °FSunny.16 mph50%30.48 "Hg10 mi
5:00 pm46 °FPassing clouds.16 mph57%30.48 "HgN/A
4:30 pm48 °FPassing clouds.15 mph58%30.48 "HgN/A
4:00 pm48 °FSunny.14 mph58%30.51 "Hg10 mi
3:30 pm48 °FPassing clouds.12 mph58%30.51 "HgN/A
3:00 pm48 °FSunny.10 mph54%30.51 "Hg10 mi
2:30 pm48 °FPartly sunny.10 mph62%30.51 "HgN/A
2:00 pm46 °FPassing clouds.8 mph53%30.51 "HgN/A
1:30 pm48 °FPassing clouds.8 mph50%30.51 "HgN/A
1:00 pm48 °FPassing clouds.6 mph43%30.51 "HgN/A
12:30 pm48 °FPassing clouds.8 mph46%30.54 "HgN/A
12:00 pm46 °FPassing clouds.8 mph46%30.54 "HgN/A
11:30 am46 °FSunny.9 mph46%30.54 "Hg10 mi
11:00 am46 °FPassing clouds.7 mph50%30.51 "HgN/A
10:30 am45 °FSunny.6 mph61%30.51 "Hg10 mi
10:00 am43 °FSunny.7 mph66%30.51 "Hg10 mi
9:30 am39 °FSunny.5 mph87%30.51 "Hg10 mi
9:00 am37 °FSunny.3 mph87%30.51 "Hg10 mi
8:30 am36 °FSunny.5 mph93%30.51 "Hg10 mi
8:00 am34 °FClear.5 mph93%30.51 "Hg4 mi
7:30 am34 °FClear.5 mph93%30.51 "Hg4 mi
7:00 am32 °FIce fog.5 mph100%30.48 "Hg3 mi
6:30 am34 °FFog.5 mph93%30.48 "Hg3 mi
6:00 am34 °FClear.3 mph93%30.48 "Hg4 mi
5:30 am34 °FFog.5 mph93%30.48 "Hg2 mi
5:00 am34 °FFog.5 mph93%30.48 "Hg3 mi
4:30 am34 °FFog.3 mph93%30.48 "Hg3 mi
4:00 am34 °FFog.3 mph93%30.48 "Hg3 mi
Weather by CustomWeather, © 2021

See weather overview